sensor_id;sensor_type;location;lat;lon;timestamp;pressure;altitude;pressure_sealevel;temperature;humidity
51849;BME280;38952;51.090;-1.832;2023-03-19T00:01:42;99831.41;;;8.81;93.25
51849;BME280;38952;51.090;-1.832;2023-03-19T00:04:07;99837.41;;;8.78;93.33
51849;BME280;38952;51.090;-1.832;2023-03-19T00:06:33;99826.44;;;8.63;93.58
51849;BME280;38952;51.090;-1.832;2023-03-19T00:08:58;99852.34;;;8.65;93.60
51849;BME280;38952;51.090;-1.832;2023-03-19T00:11:24;99854.25;;;8.65;93.62
51849;BME280;38952;51.090;-1.832;2023-03-19T00:13:50;99855.34;;;8.64;93.77
51849;BME280;38952;51.090;-1.832;2023-03-19T00:16:15;99850.97;;;8.63;93.47
51849;BME280;38952;51.090;-1.832;2023-03-19T00:18:41;99849.03;;;8.53;92.87
51849;BME280;38952;51.090;-1.832;2023-03-19T00:21:09;99866.25;;;8.64;92.55
51849;BME280;38952;51.090;-1.832;2023-03-19T00:23:35;99844.97;;;8.61;92.62
51849;BME280;38952;51.090;-1.832;2023-03-19T00:26:01;99845.50;;;8.63;91.61
51849;BME280;38952;51.090;-1.832;2023-03-19T00:28:29;99843.63;;;8.63;91.55
51849;BME280;38952;51.090;-1.832;2023-03-19T00:30:55;99863.00;;;8.72;90.90
51849;BME280;38952;51.090;-1.832;2023-03-19T00:33:23;99873.34;;;8.65;90.29
51849;BME280;38952;51.090;-1.832;2023-03-19T00:35:50;99885.91;;;8.71;89.98
51849;BME280;38952;51.090;-1.832;2023-03-19T00:38:18;99895.94;;;8.65;89.33
51849;BME280;38952;51.090;-1.832;2023-03-19T00:40:46;99892.13;;;8.61;88.85
51849;BME280;38952;51.090;-1.832;2023-03-19T00:43:12;99874.34;;;8.48;88.43
51849;BME280;38952;51.090;-1.832;2023-03-19T00:45:45;99910.97;;;8.68;88.45
51849;BME280;38952;51.090;-1.832;2023-03-19T00:48:20;99875.19;;;8.49;87.93
51849;BME280;38952;51.090;-1.832;2023-03-19T00:50:49;99895.41;;;8.68;88.36
51849;BME280;38952;51.090;-1.832;2023-03-19T00:53:18;99917.53;;;8.72;88.42
51849;BME280;38952;51.090;-1.832;2023-03-19T00:55:46;99894.56;;;8.58;88.33
51849;BME280;38952;51.090;-1.832;2023-03-19T00:58:11;99920.22;;;8.62;88.22
51849;BME280;38952;51.090;-1.832;2023-03-19T01:00:37;99911.41;;;8.49;88.25
51849;BME280;38952;51.090;-1.832;2023-03-19T01:03:04;99921.75;;;8.47;88.58
51849;BME280;38952;51.090;-1.832;2023-03-19T01:05:30;99900.41;;;8.34;88.77
51849;BME280;38952;51.090;-1.832;2023-03-19T01:07:56;99916.84;;;8.44;88.79
51849;BME280;38952;51.090;-1.832;2023-03-19T01:10:23;99930.22;;;8.51;88.69
51849;BME280;38952;51.090;-1.832;2023-03-19T01:12:51;99919.47;;;8.34;88.45
51849;BME280;38952;51.090;-1.832;2023-03-19T01:15:17;99933.75;;;8.46;88.79
51849;BME280;38952;51.090;-1.832;2023-03-19T01:17:43;99951.75;;;8.47;88.66
51849;BME280;38952;51.090;-1.832;2023-03-19T01:20:09;99945.75;;;8.50;88.39
51849;BME280;38952;51.090;-1.832;2023-03-19T01:22:43;99947.97;;;8.53;88.38
51849;BME280;38952;51.090;-1.832;2023-03-19T01:25:12;99952.34;;;8.54;87.99
51849;BME280;38952;51.090;-1.832;2023-03-19T01:27:39;99951.28;;;8.66;88.19
51849;BME280;38952;51.090;-1.832;2023-03-19T01:30:05;99950.81;;;8.79;88.14
51849;BME280;38952;51.090;-1.832;2023-03-19T01:32:32;99970.50;;;8.91;87.06
51849;BME280;38952;51.090;-1.832;2023-03-19T01:35:06;99981.41;;;8.91;86.68
51849;BME280;38952;51.090;-1.832;2023-03-19T01:37:37;99967.44;;;8.83;86.58
51849;BME280;38952;51.090;-1.832;2023-03-19T01:40:04;99976.44;;;8.78;86.13
51849;BME280;38952;51.090;-1.832;2023-03-19T01:42:30;99972.00;;;8.67;86.46
51849;BME280;38952;51.090;-1.832;2023-03-19T01:44:56;99987.81;;;8.65;86.39
51849;BME280;38952;51.090;-1.832;2023-03-19T01:47:29;99985.03;;;8.60;86.35
51849;BME280;38952;51.090;-1.832;2023-03-19T01:49:56;99996.47;;;8.56;87.39
51849;BME280;38952;51.090;-1.832;2023-03-19T01:52:24;99977.28;;;8.41;87.85
51849;BME280;38952;51.090;-1.832;2023-03-19T01:54:52;99997.72;;;8.38;87.83
51849;BME280;38952;51.090;-1.832;2023-03-19T01:57:19;99991.59;;;8.26;88.42
51849;BME280;38952;51.090;-1.832;2023-03-19T01:59:54;99998.84;;;8.10;88.43
51849;BME280;38952;51.090;-1.832;2023-03-19T02:02:29;99985.53;;;7.81;89.29
51849;BME280;38952;51.090;-1.832;2023-03-19T02:05:13;99993.25;;;7.62;89.60
51849;BME280;38952;51.090;-1.832;2023-03-19T02:07:53;99981.53;;;7.34;90.43
51849;BME280;38952;51.090;-1.832;2023-03-19T02:10:21;99990.31;;;7.20;91.46
51849;BME280;38952;51.090;-1.832;2023-03-19T02:12:47;99978.03;;;6.90;92.01
51849;BME280;38952;51.090;-1.832;2023-03-19T02:15:13;99977.50;;;6.71;93.29
51849;BME280;38952;51.090;-1.832;2023-03-19T02:17:39;99980.00;;;6.55;93.25
51849;BME280;38952;51.090;-1.832;2023-03-19T02:20:06;100002.16;;;6.47;93.92
51849;BME280;38952;51.090;-1.832;2023-03-19T02:22:42;99998.97;;;6.33;95.19
51849;BME280;38952;51.090;-1.832;2023-03-19T02:28:03;99983.16;;;5.96;95.85
51849;BME280;38952;51.090;-1.832;2023-03-19T02:30:31;99994.34;;;6.00;96.47
51849;BME280;38952;51.090;-1.832;2023-03-19T02:32:57;99986.25;;;5.88;97.28
51849;BME280;38952;51.090;-1.832;2023-03-19T02:35:24;99987.31;;;5.87;98.81
51849;BME280;38952;51.090;-1.832;2023-03-19T02:37:50;99966.13;;;5.67;99.63
51849;BME280;38952;51.090;-1.832;2023-03-19T02:40:21;99994.47;;;5.76;99.71
51849;BME280;38952;51.090;-1.832;2023-03-19T02:42:53;99982.44;;;5.55;99.98
51849;BME280;38952;51.090;-1.832;2023-03-19T02:45:19;99970.09;;;5.47;100.00
51849;BME280;38952;51.090;-1.832;2023-03-19T02:47:45;99989.50;;;5.56;100.00
51849;BME280;38952;51.090;-1.832;2023-03-19T02:50:20;99976.16;;;5.37;99.97
51849;BME280;38952;51.090;-1.832;2023-03-19T02:52:45;99975.50;;;5.30;99.53
51849;BME280;38952;51.090;-1.832;2023-03-19T02:55:11;99977.53;;;5.23;99.00
51849;BME280;38952;51.090;-1.832;2023-03-19T02:57:39;99967.53;;;5.12;99.16
51849;BME280;38952;51.090;-1.832;2023-03-19T03:00:05;99982.50;;;5.14;99.33
51849;BME280;38952;51.090;-1.832;2023-03-19T03:02:32;99974.41;;;5.02;97.88
51849;BME280;38952;51.090;-1.832;2023-03-19T03:04:57;99988.31;;;4.94;98.48
51849;BME280;38952;51.090;-1.832;2023-03-19T03:07:23;100014.13;;;4.97;97.25
51849;BME280;38952;51.090;-1.832;2023-03-19T03:09:58;100015.91;;;4.91;97.29
51849;BME280;38952;51.090;-1.832;2023-03-19T03:12:24;99994.50;;;4.78;97.12
51849;BME280;38952;51.090;-1.832;2023-03-19T03:14:58;100010.25;;;4.81;96.16
51849;BME280;38952;51.090;-1.832;2023-03-19T03:17:24;100018.47;;;4.86;96.22
51849;BME280;38952;51.090;-1.832;2023-03-19T03:19:49;100029.94;;;4.88;95.47
51849;BME280;38952;51.090;-1.832;2023-03-19T03:22:15;100033.47;;;4.77;95.33
51849;BME280;38952;51.090;-1.832;2023-03-19T03:24:42;100022.97;;;4.68;94.94
51849;BME280;38952;51.090;-1.832;2023-03-19T03:27:08;100028.41;;;4.68;94.92
51849;BME280;38952;51.090;-1.832;2023-03-19T03:29:34;100027.84;;;4.54;94.57
51849;BME280;38952;51.090;-1.832;2023-03-19T03:31:59;100051.50;;;4.59;95.01
51849;BME280;38952;51.090;-1.832;2023-03-19T03:34:25;100055.38;;;4.63;94.97
51849;BME280;38952;51.090;-1.832;2023-03-19T03:36:53;100052.53;;;4.58;94.45
51849;BME280;38952;51.090;-1.832;2023-03-19T03:39:18;100042.56;;;4.47;94.45
51849;BME280;38952;51.090;-1.832;2023-03-19T03:41:47;100063.50;;;4.51;94.31
51849;BME280;38952;51.090;-1.832;2023-03-19T03:44:15;100071.16;;;4.54;94.02
51849;BME280;38952;51.090;-1.832;2023-03-19T03:46:40;100029.84;;;4.35;93.79
51849;BME280;38952;51.090;-1.832;2023-03-19T03:49:07;100036.44;;;4.40;93.55
51849;BME280;38952;51.090;-1.832;2023-03-19T03:51:32;100052.19;;;4.43;93.45
51849;BME280;38952;51.090;-1.832;2023-03-19T03:54:05;100069.50;;;4.53;93.54
51849;BME280;38952;51.090;-1.832;2023-03-19T03:56:31;100064.41;;;4.45;93.24
51849;BME280;38952;51.090;-1.832;2023-03-19T03:58:57;100072.91;;;4.49;92.89
51849;BME280;38952;51.090;-1.832;2023-03-19T04:01:23;100053.25;;;4.30;93.46
51849;BME280;38952;51.090;-1.832;2023-03-19T04:03:51;100063.25;;;4.29;93.30
51849;BME280;38952;51.090;-1.832;2023-03-19T04:06:18;100056.66;;;4.25;93.11
51849;BME280;38952;51.090;-1.832;2023-03-19T04:08:48;100083.59;;;4.32;93.06
51849;BME280;38952;51.090;-1.832;2023-03-19T04:11:15;100101.03;;;4.36;93.34
51849;BME280;38952;51.090;-1.832;2023-03-19T04:13:41;100067.56;;;4.18;92.87
51849;BME280;38952;51.090;-1.832;2023-03-19T04:16:09;100097.50;;;4.24;93.41
51849;BME280;38952;51.090;-1.832;2023-03-19T04:18:36;100105.38;;;4.25;93.74
51849;BME280;38952;51.090;-1.832;2023-03-19T04:21:04;100101.34;;;4.16;93.76
51849;BME280;38952;51.090;-1.832;2023-03-19T04:23:30;100104.38;;;4.08;93.59
51849;BME280;38952;51.090;-1.832;2023-03-19T04:26:00;100106.94;;;4.02;94.44
51849;BME280;38952;51.090;-1.832;2023-03-19T04:28:27;100095.41;;;3.95;94.24
51849;BME280;38952;51.090;-1.832;2023-03-19T04:30:58;100116.13;;;4.01;95.00
51849;BME280;38952;51.090;-1.832;2023-03-19T04:33:26;100106.22;;;3.95;95.14
51849;BME280;38952;51.090;-1.832;2023-03-19T04:35:51;100107.38;;;3.88;94.76
51849;BME280;38952;51.090;-1.832;2023-03-19T04:38:19;100124.81;;;3.92;94.98
51849;BME280;38952;51.090;-1.832;2023-03-19T04:40:48;100129.53;;;3.96;95.99
51849;BME280;38952;51.090;-1.832;2023-03-19T04:43:16;100113.47;;;3.83;96.13
51849;BME280;38952;51.090;-1.832;2023-03-19T04:45:41;100105.81;;;3.80;95.80
51849;BME280;38952;51.090;-1.832;2023-03-19T04:48:06;100132.53;;;3.88;95.89
51849;BME280;38952;51.090;-1.832;2023-03-19T04:50:56;100112.34;;;3.72;96.63
51849;BME280;38952;51.090;-1.832;2023-03-19T04:53:33;100096.31;;;3.59;96.70
51849;BME280;38952;51.090;-1.832;2023-03-19T04:56:03;100119.06;;;3.70;96.87
51849;BME280;38952;51.090;-1.832;2023-03-19T04:58:31;100136.41;;;3.80;96.86
51849;BME280;38952;51.090;-1.832;2023-03-19T05:00:57;100159.59;;;3.88;97.28
51849;BME280;38952;51.090;-1.832;2023-03-19T05:03:27;100145.78;;;3.78;97.35
51849;BME280;38952;51.090;-1.832;2023-03-19T05:05:53;100146.97;;;3.82;97.50
51849;BME280;38952;51.090;-1.832;2023-03-19T05:08:19;100143.53;;;3.75;97.71
51849;BME280;38952;51.090;-1.832;2023-03-19T05:10:47;100157.22;;;3.80;97.51
51849;BME280;38952;51.090;-1.832;2023-03-19T05:13:15;100165.78;;;3.77;97.34
51849;BME280;38952;51.090;-1.832;2023-03-19T05:15:42;100166.09;;;3.69;97.99
51849;BME280;38952;51.090;-1.832;2023-03-19T05:18:08;100155.22;;;3.57;97.23
51849;BME280;38952;51.090;-1.832;2023-03-19T05:20:35;100174.03;;;3.63;97.38
51849;BME280;38952;51.090;-1.832;2023-03-19T05:23:08;100160.69;;;3.50;97.26
51849;BME280;38952;51.090;-1.832;2023-03-19T05:25:34;100157.97;;;3.50;98.13
51849;BME280;38952;51.090;-1.832;2023-03-19T05:28:00;100173.28;;;3.56;97.70
51849;BME280;38952;51.090;-1.832;2023-03-19T05:30:28;100189.09;;;3.59;98.27
51849;BME280;38952;51.090;-1.832;2023-03-19T05:32:56;100180.81;;;3.54;97.27
51849;BME280;38952;51.090;-1.832;2023-03-19T05:35:24;100185.19;;;3.55;97.70
51849;BME280;38952;51.090;-1.832;2023-03-19T05:37:50;100185.00;;;3.50;97.79
51849;BME280;38952;51.090;-1.832;2023-03-19T05:40:16;100183.00;;;3.45;97.33
51849;BME280;38952;51.090;-1.832;2023-03-19T05:42:41;100194.72;;;3.39;97.50
51849;BME280;38952;51.090;-1.832;2023-03-19T05:45:14;100227.00;;;3.53;97.90
51849;BME280;38952;51.090;-1.832;2023-03-19T05:47:41;100217.47;;;3.50;98.14
51849;BME280;38952;51.090;-1.832;2023-03-19T05:50:07;100214.63;;;3.45;97.84
51849;BME280;38952;51.090;-1.832;2023-03-19T05:52:35;100192.69;;;3.35;98.10
51849;BME280;38952;51.090;-1.832;2023-03-19T05:55:01;100212.38;;;3.42;97.75
51849;BME280;38952;51.090;-1.832;2023-03-19T05:57:29;100212.41;;;3.35;97.49
51849;BME280;38952;51.090;-1.832;2023-03-19T05:59:55;100230.06;;;3.38;97.77
51849;BME280;38952;51.090;-1.832;2023-03-19T06:02:20;100226.16;;;3.34;98.14
51849;BME280;38952;51.090;-1.832;2023-03-19T06:04:46;100231.56;;;3.34;97.78
51849;BME280;38952;51.090;-1.832;2023-03-19T06:07:11;100242.53;;;3.39;97.50
51849;BME280;38952;51.090;-1.832;2023-03-19T06:09:37;100233.81;;;3.37;97.98
51849;BME280;38952;51.090;-1.832;2023-03-19T06:12:03;100211.06;;;3.26;97.51
51849;BME280;38952;51.090;-1.832;2023-03-19T06:14:30;100227.19;;;3.32;98.11
51849;BME280;38952;51.090;-1.832;2023-03-19T06:16:58;100243.38;;;3.39;97.51
51849;BME280;38952;51.090;-1.832;2023-03-19T06:19:24;100230.53;;;3.35;97.74
51849;BME280;38952;51.090;-1.832;2023-03-19T06:21:50;100231.13;;;3.37;97.75
51849;BME280;38952;51.090;-1.832;2023-03-19T06:24:21;100228.88;;;3.34;97.27
51849;BME280;38952;51.090;-1.832;2023-03-19T06:26:46;100251.56;;;3.51;97.11
51849;BME280;38952;51.090;-1.832;2023-03-19T06:29:12;100257.34;;;3.55;97.20
51849;BME280;38952;51.090;-1.832;2023-03-19T06:31:37;100242.88;;;3.49;97.06
51849;BME280;38952;51.090;-1.832;2023-03-19T06:34:06;100262.97;;;3.53;96.27
51849;BME280;38952;51.090;-1.832;2023-03-19T06:36:34;100277.69;;;3.57;96.08
51849;BME280;38952;51.090;-1.832;2023-03-19T06:39:00;100269.91;;;3.49;96.52
51849;BME280;38952;51.090;-1.832;2023-03-19T06:41:25;100281.44;;;3.56;96.51
51849;BME280;38952;51.090;-1.832;2023-03-19T06:43:51;100271.16;;;3.46;95.86
51849;BME280;38952;51.090;-1.832;2023-03-19T06:46:17;100284.91;;;3.45;95.97
51849;BME280;38952;51.090;-1.832;2023-03-19T07:21:06;100290.63;;;3.55;94.07
51849;BME280;38952;51.090;-1.832;2023-03-19T07:31:05;100338.84;;;4.02;94.28
51849;BME280;38952;51.090;-1.832;2023-03-19T07:37:26;100348.53;;;4.28;92.64
51849;BME280;38952;51.090;-1.832;2023-03-19T07:40:06;100341.75;;;4.37;93.05
51849;BME280;38952;51.090;-1.832;2023-03-19T07:46:21;100323.16;;;4.60;92.10
51849;BME280;38952;51.090;-1.832;2023-03-19T07:49:26;100336.63;;;5.09;91.20
51849;BME280;38952;51.090;-1.832;2023-03-19T07:52:23;100353.34;;;5.71;88.41
51849;BME280;38952;51.090;-1.832;2023-03-19T07:55:21;100337.19;;;5.53;85.52
51849;BME280;38952;51.090;-1.832;2023-03-19T07:58:07;100374.22;;;5.59;86.59
51849;BME280;38952;51.090;-1.832;2023-03-19T08:00:32;100370.13;;;5.80;86.35
51849;BME280;38952;51.090;-1.832;2023-03-19T08:02:58;100363.75;;;6.62;85.22
51849;BME280;38952;51.090;-1.832;2023-03-19T08:05:26;100353.91;;;8.04;79.40
51849;BME280;38952;51.090;-1.832;2023-03-19T08:07:51;100347.03;;;9.82;71.06
51849;BME280;38952;51.090;-1.832;2023-03-19T08:10:17;100356.94;;;11.46;64.05
51849;BME280;38952;51.090;-1.832;2023-03-19T08:16:26;100384.28;;;15.37;50.73
51849;BME280;38952;51.090;-1.832;2023-03-19T08:19:20;100375.16;;;16.21;47.31
51849;BME280;38952;51.090;-1.832;2023-03-19T08:54:53;100453.88;;;26.29;27.19
51849;BME280;38952;51.090;-1.832;2023-03-19T08:57:21;100441.00;;;26.71;24.35
51849;BME280;38952;51.090;-1.832;2023-03-19T08:59:46;100449.19;;;27.67;25.59
51849;BME280;38952;51.090;-1.832;2023-03-19T09:02:19;100451.63;;;27.39;22.76
51849;BME280;38952;51.090;-1.832;2023-03-19T09:04:45;100429.84;;;23.99;26.27
51849;BME280;38952;51.090;-1.832;2023-03-19T09:07:11;100445.13;;;20.78;30.60
51849;BME280;38952;51.090;-1.832;2023-03-19T09:09:42;100452.75;;;18.13;34.26
51849;BME280;38952;51.090;-1.832;2023-03-19T09:12:10;100451.34;;;16.78;37.11
51849;BME280;38952;51.090;-1.832;2023-03-19T09:14:36;100451.25;;;15.57;39.22
51849;BME280;38952;51.090;-1.832;2023-03-19T09:17:10;100446.16;;;14.63;41.25
51849;BME280;38952;51.090;-1.832;2023-03-19T09:19:35;100453.75;;;14.18;42.33
51849;BME280;38952;51.090;-1.832;2023-03-19T09:22:11;100444.53;;;13.99;43.24
51849;BME280;38952;51.090;-1.832;2023-03-19T09:24:37;100471.31;;;13.88;43.41
51849;BME280;38952;51.090;-1.832;2023-03-19T09:27:02;100466.63;;;13.54;44.77
51849;BME280;38952;51.090;-1.832;2023-03-19T09:29:28;100481.97;;;13.60;45.25
51849;BME280;38952;51.090;-1.832;2023-03-19T09:31:56;100459.38;;;13.68;45.10
51849;BME280;38952;51.090;-1.832;2023-03-19T09:34:22;100484.38;;;14.06;45.27
51849;BME280;38952;51.090;-1.832;2023-03-19T09:36:47;100472.81;;;14.34;43.86
51849;BME280;38952;51.090;-1.832;2023-03-19T09:39:13;100484.84;;;14.72;43.94
51849;BME280;38952;51.090;-1.832;2023-03-19T09:44:35;100483.94;;;15.82;42.23
51849;BME280;38952;51.090;-1.832;2023-03-19T09:47:28;100476.78;;;16.47;41.57
51849;BME280;38952;51.090;-1.832;2023-03-19T09:49:57;100475.22;;;20.75;37.06
51849;BME280;38952;51.090;-1.832;2023-03-19T09:52:45;100483.84;;;24.19;29.28
51849;BME280;38952;51.090;-1.832;2023-03-19T09:55:27;100492.31;;;26.52;26.34
51849;BME280;38952;51.090;-1.832;2023-03-19T09:57:57;100511.91;;;26.72;24.99
51849;BME280;38952;51.090;-1.832;2023-03-19T10:00:33;100491.38;;;25.11;26.28
51849;BME280;38952;51.090;-1.832;2023-03-19T10:06:34;100504.78;;;22.58;29.04
51849;BME280;38952;51.090;-1.832;2023-03-19T10:11:36;100513.50;;;20.70;31.46
51849;BME280;38952;51.090;-1.832;2023-03-19T10:16:52;100505.22;;;19.30;33.50
51849;BME280;38952;51.090;-1.832;2023-03-19T10:19:36;100510.91;;;18.84;33.87
51849;BME280;38952;51.090;-1.832;2023-03-19T10:22:11;100505.25;;;18.58;34.92
51849;BME280;38952;51.090;-1.832;2023-03-19T10:24:41;100506.81;;;18.82;35.05
51849;BME280;38952;51.090;-1.832;2023-03-19T10:27:12;100516.31;;;19.39;35.02
51849;BME280;38952;51.090;-1.832;2023-03-19T10:29:41;100511.06;;;20.68;33.22
51849;BME280;38952;51.090;-1.832;2023-03-19T10:35:00;100512.34;;;23.84;28.83
51849;BME280;38952;51.090;-1.832;2023-03-19T10:37:30;100501.56;;;23.42;28.26
51849;BME280;38952;51.090;-1.832;2023-03-19T10:40:09;100506.81;;;22.36;28.81
51849;BME280;38952;51.090;-1.832;2023-03-19T10:45:29;100509.91;;;22.80;29.21
51849;BME280;38952;51.090;-1.832;2023-03-19T10:47:56;100508.97;;;21.25;30.52
51849;BME280;38952;51.090;-1.832;2023-03-19T10:55:49;100509.69;;;20.01;32.30
51849;BME280;38952;51.090;-1.832;2023-03-19T10:58:28;100517.81;;;19.62;33.14
51849;BME280;38952;51.090;-1.832;2023-03-19T11:01:11;100504.56;;;20.94;33.28
51849;BME280;38952;51.090;-1.832;2023-03-19T11:03:49;100511.69;;;25.59;27.63
51849;BME280;38952;51.090;-1.832;2023-03-19T11:06:21;100518.09;;;25.79;25.13
51849;BME280;38952;51.090;-1.832;2023-03-19T11:09:02;100505.25;;;22.84;26.94
51849;BME280;38952;51.090;-1.832;2023-03-19T11:14:15;100523.66;;;19.34;32.16
51849;BME280;38952;51.090;-1.832;2023-03-19T11:19:34;100509.91;;;18.80;34.00
51849;BME280;38952;51.090;-1.832;2023-03-19T11:22:15;100507.19;;;20.43;33.09
51849;BME280;38952;51.090;-1.832;2023-03-19T11:24:52;100520.69;;;25.17;28.11
51849;BME280;38952;51.090;-1.832;2023-03-19T11:27:26;100530.03;;;27.01;23.63
51849;BME280;38952;51.090;-1.832;2023-03-19T11:29:55;100513.72;;;24.03;25.73
51849;BME280;38952;51.090;-1.832;2023-03-19T11:36:04;100532.75;;;20.84;30.17
51849;BME280;38952;51.090;-1.832;2023-03-19T11:52:56;100525.31;;;20.40;33.50
51849;BME280;38952;51.090;-1.832;2023-03-19T11:58:54;100539.06;;;19.67;33.41
51849;BME280;38952;51.090;-1.832;2023-03-19T12:01:41;100528.41;;;18.62;34.21
51849;BME280;38952;51.090;-1.832;2023-03-19T12:06:57;100537.31;;;17.69;36.15
51849;BME280;38952;51.090;-1.832;2023-03-19T12:09:37;100534.97;;;17.76;36.25
51849;BME280;38952;51.090;-1.832;2023-03-19T12:12:25;100527.91;;;17.70;36.31
51849;BME280;38952;51.090;-1.832;2023-03-19T12:20:33;100526.47;;;16.47;37.99
51849;BME280;38952;51.090;-1.832;2023-03-19T12:23:11;100525.69;;;16.28;37.84
51849;BME280;38952;51.090;-1.832;2023-03-19T12:25:59;100504.81;;;15.88;39.01
51849;BME280;38952;51.090;-1.832;2023-03-19T12:28:41;100518.72;;;15.97;39.45
51849;BME280;38952;51.090;-1.832;2023-03-19T12:31:37;100510.31;;;16.40;39.24
51849;BME280;38952;51.090;-1.832;2023-03-19T12:34:20;100514.34;;;17.32;38.21
51849;BME280;38952;51.090;-1.832;2023-03-19T12:39:42;100510.97;;;16.79;38.13
51849;BME280;38952;51.090;-1.832;2023-03-19T12:42:16;100501.53;;;16.38;37.74
51849;BME280;38952;51.090;-1.832;2023-03-19T12:44:51;100513.78;;;17.07;37.60
51849;BME280;38952;51.090;-1.832;2023-03-19T12:47:28;100517.16;;;20.35;34.72
51849;BME280;38952;51.090;-1.832;2023-03-19T12:50:15;100501.25;;;24.73;26.60
51849;BME280;38952;51.090;-1.832;2023-03-19T12:52:49;100518.41;;;24.43;27.63
51849;BME280;38952;51.090;-1.832;2023-03-19T12:55:21;100517.34;;;23.01;28.20
51849;BME280;38952;51.090;-1.832;2023-03-19T12:58:03;100517.31;;;21.55;29.74
51849;BME280;38952;51.090;-1.832;2023-03-19T13:00:38;100512.34;;;20.62;31.65
51849;BME280;38952;51.090;-1.832;2023-03-19T13:11:07;100513.78;;;20.12;31.40
51849;BME280;38952;51.090;-1.832;2023-03-19T13:13:38;100519.13;;;19.56;32.12
51849;BME280;38952;51.090;-1.832;2023-03-19T13:19:05;100506.72;;;19.62;33.47
51849;BME280;38952;51.090;-1.832;2023-03-19T13:21:38;100504.31;;;19.87;33.32
51849;BME280;38952;51.090;-1.832;2023-03-19T13:26:52;100525.19;;;30.38;25.34
51849;BME280;38952;51.090;-1.832;2023-03-19T13:29:30;100521.66;;;33.78;19.28
51849;BME280;38952;51.090;-1.832;2023-03-19T13:32:08;100513.34;;;29.19;18.72
51849;BME280;38952;51.090;-1.832;2023-03-19T13:34:49;100510.16;;;24.18;24.06
51849;BME280;38952;51.090;-1.832;2023-03-19T13:37:19;100510.69;;;21.38;27.12
51849;BME280;38952;51.090;-1.832;2023-03-19T13:39:46;100519.75;;;20.49;29.45
51849;BME280;38952;51.090;-1.832;2023-03-19T13:50:01;100525.19;;;18.38;32.86
51849;BME280;38952;51.090;-1.832;2023-03-19T13:58:13;100517.47;;;16.55;37.11
51849;BME280;38952;51.090;-1.832;2023-03-19T14:01:08;100498.88;;;16.47;37.90
51849;BME280;38952;51.090;-1.832;2023-03-19T14:03:52;100520.19;;;17.30;37.66
51849;BME280;38952;51.090;-1.832;2023-03-19T14:06:48;100518.78;;;21.01;33.34
51849;BME280;38952;51.090;-1.832;2023-03-19T14:09:40;100537.81;;;26.22;24.41
51849;BME280;38952;51.090;-1.832;2023-03-19T14:12:57;100519.53;;;25.89;23.13
51849;BME280;38952;51.090;-1.832;2023-03-19T14:29:00;100509.38;;;23.12;26.46
51849;BME280;38952;51.090;-1.832;2023-03-19T14:31:48;100518.09;;;21.64;27.23
51849;BME280;38952;51.090;-1.832;2023-03-19T14:37:22;100505.22;;;19.30;31.00
51849;BME280;38952;51.090;-1.832;2023-03-19T14:40:09;100510.63;;;18.01;32.85
51849;BME280;38952;51.090;-1.832;2023-03-19T14:51:52;100513.00;;;17.43;35.63
51849;BME280;38952;51.090;-1.832;2023-03-19T14:57:21;100520.50;;;16.87;36.41
51849;BME280;38952;51.090;-1.832;2023-03-19T14:59:59;100500.94;;;16.83;37.91
51849;BME280;38952;51.090;-1.832;2023-03-19T15:02:41;100524.50;;;16.95;37.71
51849;BME280;38952;51.090;-1.832;2023-03-19T15:05:25;100512.03;;;17.25;37.24
51849;BME280;38952;51.090;-1.832;2023-03-19T15:07:59;100515.13;;;17.96;35.92
51849;BME280;38952;51.090;-1.832;2023-03-19T15:10:31;100525.19;;;17.92;36.01
51849;BME280;38952;51.090;-1.832;2023-03-19T15:16:18;100522.31;;;16.78;37.12
51849;BME280;38952;51.090;-1.832;2023-03-19T15:18:49;100507.22;;;16.89;37.40
51849;BME280;38952;51.090;-1.832;2023-03-19T15:21:17;100507.53;;;17.66;36.45
51849;BME280;38952;51.090;-1.832;2023-03-19T15:23:47;100530.19;;;21.08;31.83
51849;BME280;38952;51.090;-1.832;2023-03-19T15:26:28;100516.22;;;24.36;26.97
51849;BME280;38952;51.090;-1.832;2023-03-19T15:28:55;100521.34;;;25.11;25.95
51849;BME280;38952;51.090;-1.832;2023-03-19T15:31:22;100534.91;;;25.79;25.64
51849;BME280;38952;51.090;-1.832;2023-03-19T15:33:47;100530.13;;;25.80;24.28
51849;BME280;38952;51.090;-1.832;2023-03-19T15:36:15;100537.81;;;24.23;25.80
51849;BME280;38952;51.090;-1.832;2023-03-19T15:38:50;100531.06;;;23.18;26.00
51849;BME280;38952;51.090;-1.832;2023-03-19T15:41:17;100525.47;;;21.60;28.77
51849;BME280;38952;51.090;-1.832;2023-03-19T15:43:46;100531.28;;;23.01;28.24
51849;BME280;38952;51.090;-1.832;2023-03-19T15:46:28;100503.84;;;23.93;24.94
51849;BME280;38952;51.090;-1.832;2023-03-19T15:51:42;100535.84;;;23.30;27.41
51849;BME280;38952;51.090;-1.832;2023-03-19T15:54:19;100539.88;;;25.86;25.16
51849;BME280;38952;51.090;-1.832;2023-03-19T15:56:46;100532.69;;;27.17;22.46
51849;BME280;38952;51.090;-1.832;2023-03-19T15:59:16;100537.31;;;27.06;22.11
51849;BME280;38952;51.090;-1.832;2023-03-19T16:01:44;100528.81;;;26.75;21.56
51849;BME280;38952;51.090;-1.832;2023-03-19T16:04:18;100539.16;;;26.28;22.09
51849;BME280;38952;51.090;-1.832;2023-03-19T16:06:54;100548.50;;;25.77;23.08
51849;BME280;38952;51.090;-1.832;2023-03-19T16:09:30;100555.38;;;26.19;23.02
51849;BME280;38952;51.090;-1.832;2023-03-19T16:12:01;100550.13;;;26.60;23.02
51849;BME280;38952;51.090;-1.832;2023-03-19T16:14:42;100562.25;;;27.11;22.86
51849;BME280;38952;51.090;-1.832;2023-03-19T16:19:46;100556.09;;;24.05;23.46
51849;BME280;38952;51.090;-1.832;2023-03-19T16:22:19;100541.97;;;20.97;27.21
51849;BME280;38952;51.090;-1.832;2023-03-19T16:24:48;100536.50;;;18.50;30.25
51849;BME280;38952;51.090;-1.832;2023-03-19T16:30:03;100539.03;;;15.87;36.40
51849;BME280;38952;51.090;-1.832;2023-03-19T16:32:37;100519.84;;;15.39;37.67
51849;BME280;38952;51.090;-1.832;2023-03-19T16:35:13;100528.25;;;15.29;38.20
51849;BME280;38952;51.090;-1.832;2023-03-19T16:37:46;100546.22;;;15.45;38.19
51849;BME280;38952;51.090;-1.832;2023-03-19T16:42:45;100538.13;;;15.30;38.76
51849;BME280;38952;51.090;-1.832;2023-03-19T16:47:51;100559.94;;;15.02;39.80